Terminal Aerodrome Forecast
Issued by NWS

Home | Current Version | Previous Version | Text Only | Print | Product List | Glossary On
Versions: 1 2 3 4 5 6 7 8 9 10 11 12 13 14 15 16 17
000
FTUS45 KREV 301120
TAFMMH
TAF
KMMH 301120Z 3012/0112 30014G24KT P6SM VCSH SCT025 BKN040
      TEMPO 3012/3014 5SM -SHSN BKN020 OVC035
     FM301900 02012G22KT P6SM SCT040 BKN060
     FM010200 30008KT P6SM SCT060=

USA.gov is the U.S. government's official web portal to all federal, state and local government web resources and services.